sensor_id;sensor_type;location;lat;lon;timestamp;pressure;altitude;pressure_sealevel;temperature;humidity
56456;BME280;42354;53.218;6.564;2023-09-19T00:00:57;47009.84;;;-142.92;100.00
56456;BME280;42354;53.218;6.564;2023-09-19T00:03:23;47001.66;;;-142.92;100.00
56456;BME280;42354;53.218;6.564;2023-09-19T00:05:50;46985.22;;;-142.92;100.00
56456;BME280;42354;53.218;6.564;2023-09-19T00:08:16;47018.06;;;-142.92;100.00
56456;BME280;42354;53.218;6.564;2023-09-19T00:10:42;46995.50;;;-142.92;100.00
56456;BME280;42354;53.218;6.564;2023-09-19T00:13:08;47024.22;;;-142.92;100.00
56456;BME280;42354;53.218;6.564;2023-09-19T00:15:39;47005.75;;;-142.92;100.00
56456;BME280;42354;53.218;6.564;2023-09-19T00:18:06;46987.28;;;-142.92;100.00
56456;BME280;42354;53.218;6.564;2023-09-19T00:20:32;47011.91;;;-142.92;100.00
56456;BME280;42354;53.218;6.564;2023-09-19T00:23:00;46987.28;;;-142.92;100.00
56456;BME280;42354;53.218;6.564;2023-09-19T00:25:31;46991.38;;;-142.92;100.00
56456;BME280;42354;53.218;6.564;2023-09-19T00:28:00;46995.50;;;-142.92;100.00
56456;BME280;42354;53.218;6.564;2023-09-19T00:30:26;46981.13;;;-142.92;100.00
56456;BME280;42354;53.218;6.564;2023-09-19T00:32:52;46999.59;;;-142.92;100.00
56456;BME280;42354;53.218;6.564;2023-09-19T00:35:21;46993.44;;;-142.92;100.00
56456;BME280;42354;53.218;6.564;2023-09-19T00:37:49;46989.34;;;-142.92;100.00
56456;BME280;42354;53.218;6.564;2023-09-19T00:40:15;47005.75;;;-142.92;100.00
56456;BME280;42354;53.218;6.564;2023-09-19T00:42:45;46987.28;;;-142.92;100.00
56456;BME280;42354;53.218;6.564;2023-09-19T00:45:12;47005.75;;;-142.92;100.00
56456;BME280;42354;53.218;6.564;2023-09-19T00:47:43;47009.84;;;-142.92;100.00
56456;BME280;42354;53.218;6.564;2023-09-19T00:50:09;46999.59;;;-142.92;100.00
56456;BME280;42354;53.218;6.564;2023-09-19T00:52:37;47011.91;;;-142.92;100.00
56456;BME280;42354;53.218;6.564;2023-09-19T00:55:05;46987.28;;;-142.92;100.00
56456;BME280;42354;53.218;6.564;2023-09-19T00:57:31;47013.97;;;-142.92;100.00
56456;BME280;42354;53.218;6.564;2023-09-19T00:59:58;47009.84;;;-142.92;100.00
56456;BME280;42354;53.218;6.564;2023-09-19T01:02:25;47007.81;;;-142.92;100.00
56456;BME280;42354;53.218;6.564;2023-09-19T01:04:54;47016.00;;;-142.92;100.00
56456;BME280;42354;53.218;6.564;2023-09-19T01:07:20;46983.19;;;-142.92;100.00
56456;BME280;42354;53.218;6.564;2023-09-19T01:09:46;47011.91;;;-142.92;100.00
56456;BME280;42354;53.218;6.564;2023-09-19T01:12:16;46995.50;;;-142.92;100.00
56456;BME280;42354;53.218;6.564;2023-09-19T01:15:11;47005.75;;;-142.92;100.00
56456;BME280;42354;53.218;6.564;2023-09-19T01:17:56;47003.69;;;-142.92;100.00
56456;BME280;42354;53.218;6.564;2023-09-19T01:23:12;46991.38;;;-142.92;100.00
56456;BME280;42354;53.218;6.564;2023-09-19T01:26:05;47007.81;;;-142.92;100.00
56456;BME280;42354;53.218;6.564;2023-09-19T01:31:04;47001.66;;;-142.92;100.00
56456;BME280;42354;53.218;6.564;2023-09-19T01:33:53;47020.13;;;-142.92;100.00
56456;BME280;42354;53.218;6.564;2023-09-19T01:36:22;47001.66;;;-142.92;100.00
56456;BME280;42354;53.218;6.564;2023-09-19T01:38:50;46999.59;;;-142.92;100.00
56456;BME280;42354;53.218;6.564;2023-09-19T01:41:21;47003.69;;;-142.92;100.00
56456;BME280;42354;53.218;6.564;2023-09-19T01:43:50;46995.50;;;-142.92;100.00
56456;BME280;42354;53.218;6.564;2023-09-19T01:46:24;47009.84;;;-142.92;100.00
56456;BME280;42354;53.218;6.564;2023-09-19T01:51:45;47011.91;;;-142.92;100.00
56456;BME280;42354;53.218;6.564;2023-09-19T01:54:12;46991.38;;;-142.92;100.00
56456;BME280;42354;53.218;6.564;2023-09-19T01:56:57;46989.34;;;-142.92;100.00
56456;BME280;42354;53.218;6.564;2023-09-19T01:59:34;46991.38;;;-142.92;100.00
56456;BME280;42354;53.218;6.564;2023-09-19T02:02:00;46987.28;;;-142.92;100.00
56456;BME280;42354;53.218;6.564;2023-09-19T02:04:27;46995.50;;;-142.92;100.00
56456;BME280;42354;53.218;6.564;2023-09-19T02:06:53;47003.69;;;-142.92;100.00
56456;BME280;42354;53.218;6.564;2023-09-19T02:09:18;46987.28;;;-142.92;100.00
56456;BME280;42354;53.218;6.564;2023-09-19T02:11:44;46991.38;;;-142.92;100.00
56456;BME280;42354;53.218;6.564;2023-09-19T02:14:09;46983.19;;;-142.92;100.00
56456;BME280;42354;53.218;6.564;2023-09-19T02:16:35;47003.69;;;-142.92;100.00
56456;BME280;42354;53.218;6.564;2023-09-19T02:19:00;47001.66;;;-142.92;100.00
56456;BME280;42354;53.218;6.564;2023-09-19T02:21:30;46995.50;;;-142.92;100.00
56456;BME280;42354;53.218;6.564;2023-09-19T02:23:56;47011.91;;;-142.92;100.00
56456;BME280;42354;53.218;6.564;2023-09-19T02:26:21;46999.59;;;-142.92;100.00
56456;BME280;42354;53.218;6.564;2023-09-19T02:28:50;46993.44;;;-142.92;100.00
56456;BME280;42354;53.218;6.564;2023-09-19T02:31:15;47001.66;;;-142.92;100.00
56456;BME280;42354;53.218;6.564;2023-09-19T02:33:41;47011.91;;;-142.92;100.00
56456;BME280;42354;53.218;6.564;2023-09-19T02:36:07;46991.38;;;-142.92;100.00
56456;BME280;42354;53.218;6.564;2023-09-19T02:38:34;46987.28;;;-142.92;100.00
56456;BME280;42354;53.218;6.564;2023-09-19T02:40:59;47013.97;;;-142.92;100.00
56456;BME280;42354;53.218;6.564;2023-09-19T02:43:24;46995.50;;;-142.92;100.00
56456;BME280;42354;53.218;6.564;2023-09-19T02:45:50;47003.69;;;-142.92;100.00
56456;BME280;42354;53.218;6.564;2023-09-19T02:48:16;47020.13;;;-142.92;100.00
56456;BME280;42354;53.218;6.564;2023-09-19T02:50:42;46991.38;;;-142.92;100.00
56456;BME280;42354;53.218;6.564;2023-09-19T02:53:08;47020.13;;;-142.92;100.00
56456;BME280;42354;53.218;6.564;2023-09-19T02:55:33;46983.19;;;-142.92;100.00
56456;BME280;42354;53.218;6.564;2023-09-19T02:57:59;46995.50;;;-142.92;100.00
56456;BME280;42354;53.218;6.564;2023-09-19T03:00:25;47011.91;;;-142.92;100.00
56456;BME280;42354;53.218;6.564;2023-09-19T03:02:55;46985.22;;;-142.92;100.00
56456;BME280;42354;53.218;6.564;2023-09-19T03:05:21;47011.91;;;-142.92;100.00
56456;BME280;42354;53.218;6.564;2023-09-19T03:07:49;47009.84;;;-142.92;100.00
56456;BME280;42354;53.218;6.564;2023-09-19T03:10:16;47009.84;;;-142.92;100.00
56456;BME280;42354;53.218;6.564;2023-09-19T03:12:43;47001.66;;;-142.92;100.00
56456;BME280;42354;53.218;6.564;2023-09-19T03:15:08;46987.28;;;-142.92;100.00
56456;BME280;42354;53.218;6.564;2023-09-19T03:17:34;46987.28;;;-142.92;100.00
56456;BME280;42354;53.218;6.564;2023-09-19T03:20:00;46997.53;;;-142.92;100.00
56456;BME280;42354;53.218;6.564;2023-09-19T03:22:26;47003.69;;;-142.92;100.00
56456;BME280;42354;53.218;6.564;2023-09-19T03:24:52;47020.13;;;-142.92;100.00
56456;BME280;42354;53.218;6.564;2023-09-19T03:27:18;47003.69;;;-142.92;100.00
56456;BME280;42354;53.218;6.564;2023-09-19T03:29:43;46995.50;;;-142.92;100.00
56456;BME280;42354;53.218;6.564;2023-09-19T03:32:09;47003.69;;;-142.92;100.00
56456;BME280;42354;53.218;6.564;2023-09-19T03:34:37;47007.81;;;-142.92;100.00
56456;BME280;42354;53.218;6.564;2023-09-19T03:37:07;46995.50;;;-142.92;100.00
56456;BME280;42354;53.218;6.564;2023-09-19T03:39:32;47003.69;;;-142.92;100.00
56456;BME280;42354;53.218;6.564;2023-09-19T03:41:58;47013.97;;;-142.92;100.00
56456;BME280;42354;53.218;6.564;2023-09-19T03:44:23;46993.44;;;-142.92;100.00
56456;BME280;42354;53.218;6.564;2023-09-19T03:46:49;46997.53;;;-142.92;100.00
56456;BME280;42354;53.218;6.564;2023-09-19T03:49:14;47007.81;;;-142.92;100.00
56456;BME280;42354;53.218;6.564;2023-09-19T03:51:39;47005.75;;;-142.92;100.00
56456;BME280;42354;53.218;6.564;2023-09-19T03:54:07;47001.66;;;-142.92;100.00
56456;BME280;42354;53.218;6.564;2023-09-19T03:56:32;47007.81;;;-142.92;100.00
56456;BME280;42354;53.218;6.564;2023-09-19T03:58:58;46997.53;;;-142.92;100.00
56456;BME280;42354;53.218;6.564;2023-09-19T04:01:23;46995.50;;;-142.92;100.00
56456;BME280;42354;53.218;6.564;2023-09-19T04:03:48;47003.69;;;-142.92;100.00
56456;BME280;42354;53.218;6.564;2023-09-19T04:06:16;47003.69;;;-142.92;100.00
56456;BME280;42354;53.218;6.564;2023-09-19T04:08:42;47003.69;;;-142.92;100.00
56456;BME280;42354;53.218;6.564;2023-09-19T04:11:09;46999.59;;;-142.92;100.00
56456;BME280;42354;53.218;6.564;2023-09-19T04:13:35;47003.69;;;-142.92;100.00
56456;BME280;42354;53.218;6.564;2023-09-19T04:16:01;47013.97;;;-142.92;100.00
56456;BME280;42354;53.218;6.564;2023-09-19T04:18:29;46999.59;;;-142.92;100.00
56456;BME280;42354;53.218;6.564;2023-09-19T04:20:56;46999.59;;;-142.92;100.00
56456;BME280;42354;53.218;6.564;2023-09-19T04:23:21;47007.81;;;-142.92;100.00
56456;BME280;42354;53.218;6.564;2023-09-19T04:25:47;47001.66;;;-142.92;100.00
56456;BME280;42354;53.218;6.564;2023-09-19T04:28:13;47005.75;;;-142.92;100.00
56456;BME280;42354;53.218;6.564;2023-09-19T04:30:39;47007.81;;;-142.92;100.00
56456;BME280;42354;53.218;6.564;2023-09-19T04:33:05;47007.81;;;-142.92;100.00
56456;BME280;42354;53.218;6.564;2023-09-19T04:35:31;47001.66;;;-142.92;100.00
56456;BME280;42354;53.218;6.564;2023-09-19T04:37:57;46987.28;;;-142.92;100.00
56456;BME280;42354;53.218;6.564;2023-09-19T04:40:22;46997.53;;;-142.92;100.00
56456;BME280;42354;53.218;6.564;2023-09-19T04:42:58;47003.69;;;-142.92;100.00
56456;BME280;42354;53.218;6.564;2023-09-19T04:45:25;47011.91;;;-142.92;100.00
56456;BME280;42354;53.218;6.564;2023-09-19T04:47:55;46999.59;;;-142.92;100.00
56456;BME280;42354;53.218;6.564;2023-09-19T04:50:21;47001.66;;;-142.92;100.00
56456;BME280;42354;53.218;6.564;2023-09-19T04:52:51;47001.66;;;-142.92;100.00
56456;BME280;42354;53.218;6.564;2023-09-19T04:55:17;47018.06;;;-142.92;100.00
56456;BME280;42354;53.218;6.564;2023-09-19T04:57:48;47007.81;;;-142.92;100.00
56456;BME280;42354;53.218;6.564;2023-09-19T05:00:14;46995.50;;;-142.92;100.00
56456;BME280;42354;53.218;6.564;2023-09-19T05:02:42;46995.50;;;-142.92;100.00
56456;BME280;42354;53.218;6.564;2023-09-19T05:05:08;47020.13;;;-142.92;100.00
56456;BME280;42354;53.218;6.564;2023-09-19T05:07:35;47016.00;;;-142.92;100.00
56456;BME280;42354;53.218;6.564;2023-09-19T05:10:01;47011.91;;;-142.92;100.00
56456;BME280;42354;53.218;6.564;2023-09-19T05:12:26;47001.66;;;-142.92;100.00
56456;BME280;42354;53.218;6.564;2023-09-19T05:14:52;46993.44;;;-142.92;100.00
56456;BME280;42354;53.218;6.564;2023-09-19T05:17:18;47001.66;;;-142.92;100.00
56456;BME280;42354;53.218;6.564;2023-09-19T05:19:43;46999.59;;;-142.92;100.00
56456;BME280;42354;53.218;6.564;2023-09-19T05:22:08;47018.06;;;-142.92;100.00
56456;BME280;42354;53.218;6.564;2023-09-19T05:24:34;47001.66;;;-142.92;100.00
56456;BME280;42354;53.218;6.564;2023-09-19T05:26:59;47007.81;;;-142.92;100.00
56456;BME280;42354;53.218;6.564;2023-09-19T05:29:25;46987.28;;;-142.92;100.00
56456;BME280;42354;53.218;6.564;2023-09-19T05:31:51;46999.59;;;-142.92;100.00
56456;BME280;42354;53.218;6.564;2023-09-19T05:34:16;47003.69;;;-142.92;100.00
56456;BME280;42354;53.218;6.564;2023-09-19T05:36:42;47013.97;;;-142.92;100.00
56456;BME280;42354;53.218;6.564;2023-09-19T05:39:07;46993.44;;;-142.92;100.00
56456;BME280;42354;53.218;6.564;2023-09-19T05:41:35;47016.00;;;-142.92;100.00
56456;BME280;42354;53.218;6.564;2023-09-19T05:44:02;47022.16;;;-142.92;100.00
56456;BME280;42354;53.218;6.564;2023-09-19T05:46:28;47001.66;;;-142.92;100.00
56456;BME280;42354;53.218;6.564;2023-09-19T05:48:55;47011.91;;;-142.92;100.00
56456;BME280;42354;53.218;6.564;2023-09-19T05:51:23;46983.19;;;-142.92;100.00
56456;BME280;42354;53.218;6.564;2023-09-19T05:53:50;46999.59;;;-142.92;100.00
56456;BME280;42354;53.218;6.564;2023-09-19T05:56:15;46995.50;;;-142.92;100.00
56456;BME280;42354;53.218;6.564;2023-09-19T05:58:42;47009.84;;;-142.92;100.00
56456;BME280;42354;53.218;6.564;2023-09-19T06:01:09;47013.97;;;-142.92;100.00
56456;BME280;42354;53.218;6.564;2023-09-19T06:03:35;47001.66;;;-142.92;100.00
56456;BME280;42354;53.218;6.564;2023-09-19T06:06:01;46999.59;;;-142.92;100.00
56456;BME280;42354;53.218;6.564;2023-09-19T06:08:27;47020.13;;;-142.92;100.00
56456;BME280;42354;53.218;6.564;2023-09-19T06:10:53;47003.69;;;-142.92;100.00
56456;BME280;42354;53.218;6.564;2023-09-19T06:13:19;47013.97;;;-142.92;100.00
56456;BME280;42354;53.218;6.564;2023-09-19T06:15:45;47005.75;;;-142.92;100.00
56456;BME280;42354;53.218;6.564;2023-09-19T06:18:12;47011.91;;;-142.92;100.00
56456;BME280;42354;53.218;6.564;2023-09-19T06:20:48;46989.34;;;-142.92;100.00
56456;BME280;42354;53.218;6.564;2023-09-19T06:23:16;47005.75;;;-142.92;100.00
56456;BME280;42354;53.218;6.564;2023-09-19T06:25:42;47011.91;;;-142.92;100.00
56456;BME280;42354;53.218;6.564;2023-09-19T06:28:11;47011.91;;;-142.92;100.00
56456;BME280;42354;53.218;6.564;2023-09-19T06:30:40;46995.50;;;-142.92;100.00
56456;BME280;42354;53.218;6.564;2023-09-19T06:33:05;46995.50;;;-142.92;100.00
56456;BME280;42354;53.218;6.564;2023-09-19T06:35:34;47018.06;;;-142.92;100.00
56456;BME280;42354;53.218;6.564;2023-09-19T06:38:02;46987.28;;;-142.92;100.00
56456;BME280;42354;53.218;6.564;2023-09-19T06:40:29;46999.59;;;-142.92;100.00
56456;BME280;42354;53.218;6.564;2023-09-19T06:42:56;47005.75;;;-142.92;100.00
56456;BME280;42354;53.218;6.564;2023-09-19T06:45:21;46999.59;;;-142.92;100.00
56456;BME280;42354;53.218;6.564;2023-09-19T06:47:48;47001.66;;;-142.92;100.00
56456;BME280;42354;53.218;6.564;2023-09-19T06:50:17;46997.53;;;-142.92;100.00
56456;BME280;42354;53.218;6.564;2023-09-19T06:52:47;47003.69;;;-142.92;100.00
56456;BME280;42354;53.218;6.564;2023-09-19T06:55:15;46991.38;;;-142.92;100.00
56456;BME280;42354;53.218;6.564;2023-09-19T06:57:41;46995.50;;;-142.92;100.00
56456;BME280;42354;53.218;6.564;2023-09-19T07:00:09;46999.59;;;-142.92;100.00
56456;BME280;42354;53.218;6.564;2023-09-19T07:02:41;46991.38;;;-142.92;100.00
56456;BME280;42354;53.218;6.564;2023-09-19T07:05:07;46997.53;;;-142.92;100.00
56456;BME280;42354;53.218;6.564;2023-09-19T07:07:32;47011.91;;;-142.92;100.00
56456;BME280;42354;53.218;6.564;2023-09-19T07:10:03;46993.44;;;-142.92;100.00
56456;BME280;42354;53.218;6.564;2023-09-19T07:12:31;46979.06;;;-142.92;100.00
56456;BME280;42354;53.218;6.564;2023-09-19T07:14:57;47003.69;;;-142.92;100.00
56456;BME280;42354;53.218;6.564;2023-09-19T07:17:22;47020.13;;;-142.92;100.00
56456;BME280;42354;53.218;6.564;2023-09-19T07:19:49;47005.75;;;-142.92;100.00
56456;BME280;42354;53.218;6.564;2023-09-19T07:22:15;47009.84;;;-142.92;100.00
56456;BME280;42354;53.218;6.564;2023-09-19T07:24:41;47009.84;;;-142.92;100.00
56456;BME280;42354;53.218;6.564;2023-09-19T07:27:06;47007.81;;;-142.92;100.00
56456;BME280;42354;53.218;6.564;2023-09-19T07:29:31;46995.50;;;-142.92;100.00
56456;BME280;42354;53.218;6.564;2023-09-19T07:31:57;46987.28;;;-142.92;100.00
56456;BME280;42354;53.218;6.564;2023-09-19T07:34:22;46997.53;;;-142.92;100.00
56456;BME280;42354;53.218;6.564;2023-09-19T07:36:49;47009.84;;;-142.92;100.00
56456;BME280;42354;53.218;6.564;2023-09-19T07:39:15;46989.34;;;-142.92;100.00
56456;BME280;42354;53.218;6.564;2023-09-19T07:41:40;47011.91;;;-142.92;100.00
56456;BME280;42354;53.218;6.564;2023-09-19T07:44:07;46993.44;;;-142.92;100.00
56456;BME280;42354;53.218;6.564;2023-09-19T07:46:32;47001.66;;;-142.92;100.00
56456;BME280;42354;53.218;6.564;2023-09-19T07:48:58;47011.91;;;-142.92;100.00
56456;BME280;42354;53.218;6.564;2023-09-19T07:51:24;46995.50;;;-142.92;100.00
56456;BME280;42354;53.218;6.564;2023-09-19T07:53:49;47024.22;;;-142.92;100.00
56456;BME280;42354;53.218;6.564;2023-09-19T07:56:14;47005.75;;;-142.92;100.00
56456;BME280;42354;53.218;6.564;2023-09-19T07:58:40;46997.53;;;-142.92;100.00
56456;BME280;42354;53.218;6.564;2023-09-19T08:01:09;46991.38;;;-142.92;100.00
56456;BME280;42354;53.218;6.564;2023-09-19T08:03:38;46993.44;;;-142.92;100.00
56456;BME280;42354;53.218;6.564;2023-09-19T08:06:06;47013.97;;;-142.92;100.00
56456;BME280;42354;53.218;6.564;2023-09-19T08:08:33;47016.00;;;-142.92;100.00
56456;BME280;42354;53.218;6.564;2023-09-19T08:11:03;46999.59;;;-142.92;100.00
56456;BME280;42354;53.218;6.564;2023-09-19T08:13:29;47011.91;;;-142.92;100.00
56456;BME280;42354;53.218;6.564;2023-09-19T08:15:56;46999.59;;;-142.92;100.00
56456;BME280;42354;53.218;6.564;2023-09-19T08:18:21;46991.38;;;-142.92;100.00
56456;BME280;42354;53.218;6.564;2023-09-19T08:20:52;47003.69;;;-142.92;100.00
56456;BME280;42354;53.218;6.564;2023-09-19T08:23:18;47005.75;;;-142.92;100.00
56456;BME280;42354;53.218;6.564;2023-09-19T08:25:48;46991.38;;;-142.92;100.00
56456;BME280;42354;53.218;6.564;2023-09-19T08:28:14;46999.59;;;-142.92;100.00
56456;BME280;42354;53.218;6.564;2023-09-19T08:30:44;46987.28;;;-142.92;100.00
56456;BME280;42354;53.218;6.564;2023-09-19T08:33:10;46989.34;;;-142.92;100.00
56456;BME280;42354;53.218;6.564;2023-09-19T08:35:36;46987.28;;;-142.92;100.00
56456;BME280;42354;53.218;6.564;2023-09-19T08:38:03;46991.38;;;-142.92;100.00
56456;BME280;42354;53.218;6.564;2023-09-19T08:40:32;46999.59;;;-142.92;100.00
56456;BME280;42354;53.218;6.564;2023-09-19T08:43:01;47005.75;;;-142.92;100.00
56456;BME280;42354;53.218;6.564;2023-09-19T08:45:27;46991.38;;;-142.92;100.00
56456;BME280;42354;53.218;6.564;2023-09-19T08:50:31;47003.69;;;-142.92;99.43
56456;BME280;42354;53.218;6.564;2023-09-19T08:53:08;47011.91;;;-142.92;98.49
56456;BME280;42354;53.218;6.564;2023-09-19T08:55:36;47009.84;;;-142.92;98.27
56456;BME280;42354;53.218;6.564;2023-09-19T08:58:06;47001.66;;;-142.92;95.55
56456;BME280;42354;53.218;6.564;2023-09-19T09:00:36;47009.84;;;-142.92;95.86
56456;BME280;42354;53.218;6.564;2023-09-19T09:03:03;46991.38;;;-142.92;95.40
56456;BME280;42354;53.218;6.564;2023-09-19T09:05:32;47005.75;;;-142.92;93.42
56456;BME280;42354;53.218;6.564;2023-09-19T09:08:00;47001.66;;;-142.92;93.22
56456;BME280;42354;53.218;6.564;2023-09-19T09:10:27;47005.75;;;-142.92;93.10
56456;BME280;42354;53.218;6.564;2023-09-19T09:12:53;46989.34;;;-142.92;92.34
56456;BME280;42354;53.218;6.564;2023-09-19T09:15:21;46999.59;;;-142.92;92.34
56456;BME280;42354;53.218;6.564;2023-09-19T09:17:47;47007.81;;;-142.92;92.52
56456;BME280;42354;53.218;6.564;2023-09-19T09:20:17;46995.50;;;-142.92;92.82
56456;BME280;42354;53.218;6.564;2023-09-19T09:22:56;46989.34;;;-142.92;92.57
56456;BME280;42354;53.218;6.564;2023-09-19T09:25:52;47001.66;;;-142.92;91.42
56456;BME280;42354;53.218;6.564;2023-09-19T09:28:23;46999.59;;;-142.92;92.78
56456;BME280;42354;53.218;6.564;2023-09-19T09:30:49;46995.50;;;-142.92;92.63
56456;BME280;42354;53.218;6.564;2023-09-19T09:33:16;47003.69;;;-142.92;92.64
56456;BME280;42354;53.218;6.564;2023-09-19T09:36:01;46999.59;;;-142.92;92.75
56456;BME280;42354;53.218;6.564;2023-09-19T09:38:29;47003.69;;;-142.92;92.77
56456;BME280;42354;53.218;6.564;2023-09-19T09:40:59;46985.22;;;-142.92;92.45
56456;BME280;42354;53.218;6.564;2023-09-19T09:43:39;47007.81;;;-142.92;90.25
56456;BME280;42354;53.218;6.564;2023-09-19T09:46:18;46995.50;;;-142.92;88.37
56456;BME280;42354;53.218;6.564;2023-09-19T09:49:03;46997.53;;;-142.92;87.25
56456;BME280;42354;53.218;6.564;2023-09-19T09:51:58;46997.53;;;-142.92;86.98
56456;BME280;42354;53.218;6.564;2023-09-19T09:54:28;47003.69;;;-142.92;85.37
56456;BME280;42354;53.218;6.564;2023-09-19T09:57:10;46983.19;;;-142.92;84.29
56456;BME280;42354;53.218;6.564;2023-09-19T09:59:55;47001.66;;;-142.92;84.53
56456;BME280;42354;53.218;6.564;2023-09-19T10:02:30;46993.44;;;-142.92;84.75
56456;BME280;42354;53.218;6.564;2023-09-19T10:05:31;46991.38;;;-142.92;82.60
56456;BME280;42354;53.218;6.564;2023-09-19T10:08:11;47001.66;;;-142.92;81.16
56456;BME280;42354;53.218;6.564;2023-09-19T10:10:44;46999.59;;;-142.92;80.68
56456;BME280;42354;53.218;6.564;2023-09-19T10:13:20;46999.59;;;-142.92;79.30
56456;BME280;42354;53.218;6.564;2023-09-19T10:15:50;47009.84;;;-142.92;78.74
56456;BME280;42354;53.218;6.564;2023-09-19T10:18:26;46997.53;;;-142.92;76.26
56456;BME280;42354;53.218;6.564;2023-09-19T10:20:53;47001.66;;;-142.92;75.24
56456;BME280;42354;53.218;6.564;2023-09-19T10:23:21;46991.38;;;-142.92;73.74
56456;BME280;42354;53.218;6.564;2023-09-19T10:25:52;46987.28;;;-142.92;70.38
56456;BME280;42354;53.218;6.564;2023-09-19T10:28:18;47007.81;;;-142.92;69.69
56456;BME280;42354;53.218;6.564;2023-09-19T10:30:51;46995.50;;;-142.92;70.28
56456;BME280;42354;53.218;6.564;2023-09-19T10:33:19;46987.28;;;-142.92;71.58
56456;BME280;42354;53.218;6.564;2023-09-19T10:35:47;46995.50;;;-142.92;72.30
56456;BME280;42354;53.218;6.564;2023-09-19T10:38:15;47001.66;;;-142.92;72.58
56456;BME280;42354;53.218;6.564;2023-09-19T10:40:42;46999.59;;;-142.92;71.77
56456;BME280;42354;53.218;6.564;2023-09-19T10:43:19;46987.28;;;-142.92;70.36
56456;BME280;42354;53.218;6.564;2023-09-19T10:45:47;47007.81;;;-142.92;70.17
56456;BME280;42354;53.218;6.564;2023-09-19T10:48:15;46985.22;;;-142.92;69.58
56456;BME280;42354;53.218;6.564;2023-09-19T10:50:48;46995.50;;;-142.92;70.09
56456;BME280;42354;53.218;6.564;2023-09-19T10:53:16;46993.44;;;-142.92;70.24
56456;BME280;42354;53.218;6.564;2023-09-19T10:55:49;46983.19;;;-142.92;68.77
56456;BME280;42354;53.218;6.564;2023-09-19T10:58:28;46981.13;;;-142.92;70.53
56456;BME280;42354;53.218;6.564;2023-09-19T11:00:57;47003.69;;;-142.92;72.15
56456;BME280;42354;53.218;6.564;2023-09-19T11:03:38;46995.50;;;-142.92;72.44
56456;BME280;42354;53.218;6.564;2023-09-19T11:06:12;46999.59;;;-142.92;70.70
56456;BME280;42354;53.218;6.564;2023-09-19T11:08:51;47003.69;;;-142.92;70.70
56456;BME280;42354;53.218;6.564;2023-09-19T11:11:43;46989.34;;;-142.92;71.19
56456;BME280;42354;53.218;6.564;2023-09-19T11:30:47;46987.28;;;-142.92;76.31
56456;BME280;42354;53.218;6.564;2023-09-19T11:36:02;46991.38;;;-142.92;77.41
56456;BME280;42354;53.218;6.564;2023-09-19T11:43:51;46989.34;;;-142.92;75.85
56456;BME280;42354;53.218;6.564;2023-09-19T11:46:17;47001.66;;;-142.92;75.37
56456;BME280;42354;53.218;6.564;2023-09-19T11:48:48;46997.53;;;-142.92;75.20
56456;BME280;42354;53.218;6.564;2023-09-19T11:51:16;46987.28;;;-142.92;74.41
56456;BME280;42354;53.218;6.564;2023-09-19T11:53:50;46995.50;;;-142.92;74.41
56456;BME280;42354;53.218;6.564;2023-09-19T11:56:20;46993.44;;;-142.92;74.71
56456;BME280;42354;53.218;6.564;2023-09-19T11:58:49;47001.66;;;-142.92;75.09
56456;BME280;42354;53.218;6.564;2023-09-19T12:01:31;47009.84;;;-142.92;75.35
56456;BME280;42354;53.218;6.564;2023-09-19T12:04:00;46991.38;;;-142.92;76.49
56456;BME280;42354;53.218;6.564;2023-09-19T12:06:28;46991.38;;;-142.92;77.53
56456;BME280;42354;53.218;6.564;2023-09-19T12:08:55;47003.69;;;-142.92;78.95
56456;BME280;42354;53.218;6.564;2023-09-19T12:11:23;46995.50;;;-142.92;80.00
56456;BME280;42354;53.218;6.564;2023-09-19T12:13:49;46977.03;;;-142.92;81.09
56456;BME280;42354;53.218;6.564;2023-09-19T12:16:16;46991.38;;;-142.92;81.52
56456;BME280;42354;53.218;6.564;2023-09-19T12:18:42;46995.50;;;-142.92;82.04
56456;BME280;42354;53.218;6.564;2023-09-19T12:21:26;46987.28;;;-142.92;81.90
56456;BME280;42354;53.218;6.564;2023-09-19T12:24:12;46985.22;;;-142.92;82.62
56456;BME280;42354;53.218;6.564;2023-09-19T12:26:45;46985.22;;;-142.92;84.43
56456;BME280;42354;53.218;6.564;2023-09-19T12:29:17;46993.44;;;-142.92;85.30
56456;BME280;42354;53.218;6.564;2023-09-19T12:31:54;46993.44;;;-142.92;87.88
56456;BME280;42354;53.218;6.564;2023-09-19T12:34:27;46991.38;;;-142.92;90.87
56456;BME280;42354;53.218;6.564;2023-09-19T12:37:06;46977.03;;;-142.92;94.42
56456;BME280;42354;53.218;6.564;2023-09-19T12:39:43;46999.59;;;-142.92;94.92
56456;BME280;42354;53.218;6.564;2023-09-19T12:42:12;46987.28;;;-142.92;95.76
56456;BME280;42354;53.218;6.564;2023-09-19T12:44:42;46995.50;;;-142.92;95.85
56456;BME280;42354;53.218;6.564;2023-09-19T12:47:18;46993.44;;;-142.92;95.45
56456;BME280;42354;53.218;6.564;2023-09-19T12:50:14;47003.69;;;-142.92;94.82
56456;BME280;42354;53.218;6.564;2023-09-19T12:52:51;46987.28;;;-142.92;94.12
56456;BME280;42354;53.218;6.564;2023-09-19T12:58:07;46993.44;;;-142.92;92.79
56456;BME280;42354;53.218;6.564;2023-09-19T13:00:38;46987.28;;;-142.92;92.40
56456;BME280;42354;53.218;6.564;2023-09-19T13:03:13;46983.19;;;-142.92;91.11
56456;BME280;42354;53.218;6.564;2023-09-19T13:05:56;46997.53;;;-142.92;91.09
56456;BME280;42354;53.218;6.564;2023-09-19T13:08:37;46995.50;;;-142.92;91.18
56456;BME280;42354;53.218;6.564;2023-09-19T13:11:15;46983.19;;;-142.92;91.15
56456;BME280;42354;53.218;6.564;2023-09-19T13:13:47;46987.28;;;-142.92;91.33
56456;BME280;42354;53.218;6.564;2023-09-19T13:16:14;46991.38;;;-142.92;91.40
56456;BME280;42354;53.218;6.564;2023-09-19T13:18:46;47007.81;;;-142.92;91.34
56456;BME280;42354;53.218;6.564;2023-09-19T13:21:13;46995.50;;;-142.92;91.30